sensor_id;sensor_type;location;lat;lon;timestamp;pressure;altitude;pressure_sealevel;temperature;humidity
59043;BME280;44826;51.596;5.624;2022-12-18T00:02:09;102756.75;;;-5.75;84.73
59043;BME280;44826;51.596;5.624;2022-12-18T00:04:36;102762.59;;;-5.76;84.33
59043;BME280;44826;51.596;5.624;2022-12-18T00:07:01;102756.31;;;-5.81;84.28
59043;BME280;44826;51.596;5.624;2022-12-18T00:09:26;102765.22;;;-5.86;84.03
59043;BME280;44826;51.596;5.624;2022-12-18T00:11:52;102763.16;;;-5.92;84.03
59043;BME280;44826;51.596;5.624;2022-12-18T00:14:17;102765.44;;;-5.95;83.96
59043;BME280;44826;51.596;5.624;2022-12-18T00:16:44;102774.59;;;-5.97;84.14
59043;BME280;44826;51.596;5.624;2022-12-18T00:19:10;102776.81;;;-6.02;84.13
59043;BME280;44826;51.596;5.624;2022-12-18T00:21:35;102773.97;;;-6.06;84.13
59043;BME280;44826;51.596;5.624;2022-12-18T00:24:01;102755.31;;;-6.07;84.27
59043;BME280;44826;51.596;5.624;2022-12-18T00:26:30;102757.00;;;-6.07;84.35
59043;BME280;44826;51.596;5.624;2022-12-18T00:29:01;102749.16;;;-6.11;84.43
59043;BME280;44826;51.596;5.624;2022-12-18T00:31:27;102751.47;;;-6.14;83.92
59043;BME280;44826;51.596;5.624;2022-12-18T00:33:55;102748.81;;;-6.15;84.35
59043;BME280;44826;51.596;5.624;2022-12-18T00:36:24;102753.00;;;-6.16;84.40
59043;BME280;44826;51.596;5.624;2022-12-18T00:38:50;102756.44;;;-6.15;83.60
59043;BME280;44826;51.596;5.624;2022-12-18T00:41:16;102754.75;;;-6.15;84.43
59043;BME280;44826;51.596;5.624;2022-12-18T00:44:03;102750.13;;;-6.20;83.60
59043;BME280;44826;51.596;5.624;2022-12-18T00:46:29;102745.06;;;-6.20;83.72
59043;BME280;44826;51.596;5.624;2022-12-18T00:48:54;102750.66;;;-6.25;84.09
59043;BME280;44826;51.596;5.624;2022-12-18T00:51:20;102758.03;;;-6.28;83.75
59043;BME280;44826;51.596;5.624;2022-12-18T00:53:45;102759.56;;;-6.30;83.46
59043;BME280;44826;51.596;5.624;2022-12-18T00:56:10;102758.03;;;-6.28;84.24
59043;BME280;44826;51.596;5.624;2022-12-18T00:58:36;102752.63;;;-6.32;83.94
59043;BME280;44826;51.596;5.624;2022-12-18T01:01:03;102751.41;;;-6.37;83.72
59043;BME280;44826;51.596;5.624;2022-12-18T01:03:29;102752.06;;;-6.40;83.72
59043;BME280;44826;51.596;5.624;2022-12-18T01:05:54;102752.06;;;-6.40;83.54
59043;BME280;44826;51.596;5.624;2022-12-18T01:08:19;102756.88;;;-6.43;83.39
59043;BME280;44826;51.596;5.624;2022-12-18T01:10:45;102755.25;;;-6.43;84.09
59043;BME280;44826;51.596;5.624;2022-12-18T01:13:10;102745.66;;;-6.47;83.66
59043;BME280;44826;51.596;5.624;2022-12-18T01:15:35;102761.50;;;-6.49;83.04
59043;BME280;44826;51.596;5.624;2022-12-18T01:18:00;102767.88;;;-6.54;83.39
59043;BME280;44826;51.596;5.624;2022-12-18T01:20:26;102771.16;;;-6.56;83.47
59043;BME280;44826;51.596;5.624;2022-12-18T01:22:51;102778.75;;;-6.56;83.75
59043;BME280;44826;51.596;5.624;2022-12-18T01:25:16;102782.81;;;-6.58;83.96
59043;BME280;44826;51.596;5.624;2022-12-18T01:27:42;102774.88;;;-6.62;83.36
59043;BME280;44826;51.596;5.624;2022-12-18T01:30:07;102773.13;;;-6.63;83.32
59043;BME280;44826;51.596;5.624;2022-12-18T01:32:33;102776.06;;;-6.69;82.97
59043;BME280;44826;51.596;5.624;2022-12-18T01:34:58;102768.91;;;-6.75;82.80
59043;BME280;44826;51.596;5.624;2022-12-18T01:37:23;102774.84;;;-6.74;83.56
59043;BME280;44826;51.596;5.624;2022-12-18T01:39:49;102764.72;;;-6.74;83.69
59043;BME280;44826;51.596;5.624;2022-12-18T01:42:15;102756.88;;;-6.77;83.58
59043;BME280;44826;51.596;5.624;2022-12-18T01:44:57;102754.34;;;-6.77;83.55
59043;BME280;44826;51.596;5.624;2022-12-18T01:47:30;102756.09;;;-6.76;83.14
59043;BME280;44826;51.596;5.624;2022-12-18T01:49:59;102752.47;;;-6.80;83.03
59043;BME280;44826;51.596;5.624;2022-12-18T01:52:31;102749.03;;;-6.80;83.21
59043;BME280;44826;51.596;5.624;2022-12-18T01:54:57;102749.03;;;-6.80;83.69
59043;BME280;44826;51.596;5.624;2022-12-18T01:57:24;102748.19;;;-6.81;83.30
59043;BME280;44826;51.596;5.624;2022-12-18T01:59:52;102748.03;;;-6.82;83.64
59043;BME280;44826;51.596;5.624;2022-12-18T02:02:20;102749.03;;;-6.80;83.60
59043;BME280;44826;51.596;5.624;2022-12-18T02:04:45;102757.53;;;-6.80;83.08
59043;BME280;44826;51.596;5.624;2022-12-18T02:07:14;102757.41;;;-6.81;83.64
59043;BME280;44826;51.596;5.624;2022-12-18T02:09:48;102753.91;;;-6.83;83.64
59043;BME280;44826;51.596;5.624;2022-12-18T02:12:20;102747.06;;;-6.84;83.83
59043;BME280;44826;51.596;5.624;2022-12-18T02:14:56;102740.25;;;-6.86;84.08
59043;BME280;44826;51.596;5.624;2022-12-18T02:17:37;102742.53;;;-6.89;83.00
59043;BME280;44826;51.596;5.624;2022-12-18T02:28:28;102744.56;;;-6.95;83.08
59043;BME280;44826;51.596;5.624;2022-12-18T02:30:57;102748.78;;;-6.95;83.25
59043;BME280;44826;51.596;5.624;2022-12-18T02:33:25;102752.94;;;-6.96;83.65
59043;BME280;44826;51.596;5.624;2022-12-18T02:35:53;102748.28;;;-7.02;83.10
59043;BME280;44826;51.596;5.624;2022-12-18T02:38:20;102752.47;;;-7.02;83.65
59043;BME280;44826;51.596;5.624;2022-12-18T02:40:46;102753.88;;;-7.06;82.58
59043;BME280;44826;51.596;5.624;2022-12-18T02:43:14;102745.16;;;-7.09;83.02
59043;BME280;44826;51.596;5.624;2022-12-18T02:46:00;102740.00;;;-7.11;82.99
59043;BME280;44826;51.596;5.624;2022-12-18T02:48:34;102737.34;;;-7.12;82.95
59043;BME280;44826;51.596;5.624;2022-12-18T02:51:24;102730.66;;;-7.12;83.36
59043;BME280;44826;51.596;5.624;2022-12-18T02:54:16;102725.44;;;-7.13;83.53
59043;BME280;44826;51.596;5.624;2022-12-18T02:56:50;102724.59;;;-7.14;83.26
59043;BME280;44826;51.596;5.624;2022-12-18T02:59:21;102709.28;;;-7.16;83.58
59043;BME280;44826;51.596;5.624;2022-12-18T03:01:53;102708.41;;;-7.16;83.10
59043;BME280;44826;51.596;5.624;2022-12-18T03:04:21;102709.41;;;-7.14;83.24
59043;BME280;44826;51.596;5.624;2022-12-18T03:06:54;102714.31;;;-7.16;83.49
59043;BME280;44826;51.596;5.624;2022-12-18T03:09:24;102714.31;;;-7.16;83.52
59043;BME280;44826;51.596;5.624;2022-12-18T03:11:56;102726.09;;;-7.16;82.98
59043;BME280;44826;51.596;5.624;2022-12-18T03:14:43;102717.63;;;-7.17;83.24
59043;BME280;44826;51.596;5.624;2022-12-18T03:17:13;102717.63;;;-7.17;83.32
59043;BME280;44826;51.596;5.624;2022-12-18T03:19:42;102712.56;;;-7.17;83.24
59043;BME280;44826;51.596;5.624;2022-12-18T03:22:09;102711.69;;;-7.17;83.03
59043;BME280;44826;51.596;5.624;2022-12-18T03:24:35;102714.22;;;-7.17;82.85
59043;BME280;44826;51.596;5.624;2022-12-18T03:27:07;102713.97;;;-7.20;83.70
59043;BME280;44826;51.596;5.624;2022-12-18T03:29:38;102707.91;;;-7.22;83.75
59043;BME280;44826;51.596;5.624;2022-12-18T03:32:09;102714.13;;;-7.19;82.77
59043;BME280;44826;51.596;5.624;2022-12-18T03:34:37;102708.16;;;-7.19;82.97
59043;BME280;44826;51.596;5.624;2022-12-18T03:37:04;102712.22;;;-7.21;83.21
59043;BME280;44826;51.596;5.624;2022-12-18T03:39:30;102716.50;;;-7.20;83.39
59043;BME280;44826;51.596;5.624;2022-12-18T03:42:06;102707.28;;;-7.20;83.57
59043;BME280;44826;51.596;5.624;2022-12-18T03:47:16;102699.72;;;-7.20;83.21
59043;BME280;44826;51.596;5.624;2022-12-18T03:50:02;102697.94;;;-7.21;83.06
59043;BME280;44826;51.596;5.624;2022-12-18T03:52:44;102692.88;;;-7.21;82.92
59043;BME280;44826;51.596;5.624;2022-12-18T03:55:12;102694.66;;;-7.20;83.19
59043;BME280;44826;51.596;5.624;2022-12-18T03:57:38;102688.59;;;-7.22;83.32
59043;BME280;44826;51.596;5.624;2022-12-18T04:00:10;102689.34;;;-7.23;83.63
59043;BME280;44826;51.596;5.624;2022-12-18T04:02:38;102686.06;;;-7.22;83.59
59043;BME280;44826;51.596;5.624;2022-12-18T04:05:07;102676.94;;;-7.20;83.57
59043;BME280;44826;51.596;5.624;2022-12-18T04:07:34;102677.72;;;-7.21;82.99
59043;BME280;44826;51.596;5.624;2022-12-18T04:10:01;102666.81;;;-7.20;83.49
59043;BME280;44826;51.596;5.624;2022-12-18T04:12:29;102671.13;;;-7.19;82.99
59043;BME280;44826;51.596;5.624;2022-12-18T04:14:54;102655.72;;;-7.22;84.01
59043;BME280;44826;51.596;5.624;2022-12-18T04:17:20;102663.41;;;-7.20;83.53
59043;BME280;44826;51.596;5.624;2022-12-18T04:19:46;102652.53;;;-7.19;83.14
59043;BME280;44826;51.596;5.624;2022-12-18T04:22:12;102653.41;;;-7.19;83.55
59043;BME280;44826;51.596;5.624;2022-12-18T04:24:37;102650.88;;;-7.19;83.10
59043;BME280;44826;51.596;5.624;2022-12-18T04:27:03;102647.47;;;-7.19;83.18
59043;BME280;44826;51.596;5.624;2022-12-18T04:29:28;102647.47;;;-7.19;83.32
59043;BME280;44826;51.596;5.624;2022-12-18T04:31:54;102641.63;;;-7.18;83.43
59043;BME280;44826;51.596;5.624;2022-12-18T04:34:20;102646.69;;;-7.18;83.34
59043;BME280;44826;51.596;5.624;2022-12-18T04:36:45;102648.47;;;-7.17;83.74
59043;BME280;44826;51.596;5.624;2022-12-18T04:39:10;102645.94;;;-7.17;83.54
59043;BME280;44826;51.596;5.624;2022-12-18T04:41:35;102655.94;;;-7.19;83.58
59043;BME280;44826;51.596;5.624;2022-12-18T04:44:01;102652.53;;;-7.19;83.23
59043;BME280;44826;51.596;5.624;2022-12-18T04:46:26;102661.97;;;-7.17;83.51
59043;BME280;44826;51.596;5.624;2022-12-18T04:48:51;102658.47;;;-7.19;83.96
59043;BME280;44826;51.596;5.624;2022-12-18T04:51:17;102665.31;;;-7.18;83.82
59043;BME280;44826;51.596;5.624;2022-12-18T04:53:42;102668.69;;;-7.17;83.74
59043;BME280;44826;51.596;5.624;2022-12-18T04:56:13;102668.03;;;-7.14;83.78
59043;BME280;44826;51.596;5.624;2022-12-18T04:58:40;102663.75;;;-7.16;83.51
59043;BME280;44826;51.596;5.624;2022-12-18T05:01:06;102670.56;;;-7.14;84.18
59043;BME280;44826;51.596;5.624;2022-12-18T05:03:32;102676.53;;;-7.14;83.39
59043;BME280;44826;51.596;5.624;2022-12-18T05:05:57;102672.34;;;-7.13;83.83
59043;BME280;44826;51.596;5.624;2022-12-18T05:08:23;102689.28;;;-7.12;83.31
59043;BME280;44826;51.596;5.624;2022-12-18T05:10:48;102694.34;;;-7.12;83.93
59043;BME280;44826;51.596;5.624;2022-12-18T05:13:14;102699.53;;;-7.11;83.74
59043;BME280;44826;51.596;5.624;2022-12-18T05:15:39;102713.81;;;-7.11;84.01
59043;BME280;44826;51.596;5.624;2022-12-18T05:18:04;102704.69;;;-7.09;84.00
59043;BME280;44826;51.596;5.624;2022-12-18T05:20:30;102709.75;;;-7.09;83.72
59043;BME280;44826;51.596;5.624;2022-12-18T05:22:56;102709.75;;;-7.09;83.48
59043;BME280;44826;51.596;5.624;2022-12-18T05:25:22;102707.97;;;-7.10;83.66
59043;BME280;44826;51.596;5.624;2022-12-18T05:27:48;102704.69;;;-7.09;83.12
59043;BME280;44826;51.596;5.624;2022-12-18T05:30:13;102701.91;;;-7.12;83.99
59043;BME280;44826;51.596;5.624;2022-12-18T05:32:39;102696.09;;;-7.11;83.37
59043;BME280;44826;51.596;5.624;2022-12-18T05:35:05;102690.94;;;-7.13;83.47
59043;BME280;44826;51.596;5.624;2022-12-18T05:37:31;102684.22;;;-7.12;83.35
59043;BME280;44826;51.596;5.624;2022-12-18T05:39:56;102681.59;;;-7.14;83.06
59043;BME280;44826;51.596;5.624;2022-12-18T05:42:22;102686.50;;;-7.16;83.84
59043;BME280;44826;51.596;5.624;2022-12-18T05:44:47;102690.94;;;-7.13;83.82
59043;BME280;44826;51.596;5.624;2022-12-18T05:47:12;102680.81;;;-7.13;83.87
59043;BME280;44826;51.596;5.624;2022-12-18T05:49:38;102671.47;;;-7.14;83.33
59043;BME280;44826;51.596;5.624;2022-12-18T05:52:03;102681.59;;;-7.14;83.67
59043;BME280;44826;51.596;5.624;2022-12-18T05:54:29;102669.69;;;-7.15;83.71
59043;BME280;44826;51.596;5.624;2022-12-18T05:56:54;102674.00;;;-7.14;83.05
59043;BME280;44826;51.596;5.624;2022-12-18T05:59:20;102668.03;;;-7.14;83.49
59043;BME280;44826;51.596;5.624;2022-12-18T06:01:45;102664.75;;;-7.13;83.46
59043;BME280;44826;51.596;5.624;2022-12-18T06:04:11;102663.13;;;-7.13;83.44
59043;BME280;44826;51.596;5.624;2022-12-18T06:06:36;102652.88;;;-7.14;83.57
59043;BME280;44826;51.596;5.624;2022-12-18T06:09:02;102652.75;;;-7.16;83.85
59043;BME280;44826;51.596;5.624;2022-12-18T06:11:33;102653.63;;;-7.16;83.32
59043;BME280;44826;51.596;5.624;2022-12-18T06:13:58;102652.00;;;-7.15;83.87
59043;BME280;44826;51.596;5.624;2022-12-18T06:16:24;102646.03;;;-7.16;83.80
59043;BME280;44826;51.596;5.624;2022-12-18T06:18:49;102643.31;;;-7.19;83.51
59043;BME280;44826;51.596;5.624;2022-12-18T06:21:14;102650.88;;;-7.19;83.61
59043;BME280;44826;51.596;5.624;2022-12-18T06:23:40;102648.22;;;-7.20;83.36
59043;BME280;44826;51.596;5.624;2022-12-18T06:26:07;102648.47;;;-7.17;83.59
59043;BME280;44826;51.596;5.624;2022-12-18T06:28:32;102633.94;;;-7.20;83.61
59043;BME280;44826;51.596;5.624;2022-12-18T06:30:58;102654.19;;;-7.20;83.39
59043;BME280;44826;51.596;5.624;2022-12-18T06:33:26;102656.56;;;-7.21;83.27
59043;BME280;44826;51.596;5.624;2022-12-18T06:35:53;102648.13;;;-7.22;83.92
59043;BME280;44826;51.596;5.624;2022-12-18T06:38:18;102649.13;;;-7.20;83.25
59043;BME280;44826;51.596;5.624;2022-12-18T06:40:43;102644.81;;;-7.21;83.19
59043;BME280;44826;51.596;5.624;2022-12-18T06:43:08;102647.47;;;-7.19;83.37
59043;BME280;44826;51.596;5.624;2022-12-18T06:45:34;102651.41;;;-7.23;83.51
59043;BME280;44826;51.596;5.624;2022-12-18T06:47:59;102639.53;;;-7.24;83.42
59043;BME280;44826;51.596;5.624;2022-12-18T06:50:24;102642.94;;;-7.23;83.51
59043;BME280;44826;51.596;5.624;2022-12-18T06:52:50;102641.94;;;-7.25;83.33
59043;BME280;44826;51.596;5.624;2022-12-18T06:55:15;102637.53;;;-7.28;83.52
59043;BME280;44826;51.596;5.624;2022-12-18T06:57:40;102638.44;;;-7.27;83.77
59043;BME280;44826;51.596;5.624;2022-12-18T07:00:06;102636.75;;;-7.27;83.23
59043;BME280;44826;51.596;5.624;2022-12-18T07:02:32;102623.34;;;-7.26;83.95
59043;BME280;44826;51.596;5.624;2022-12-18T07:04:57;102635.25;;;-7.25;84.10
59043;BME280;44826;51.596;5.624;2022-12-18T07:07:23;102630.41;;;-7.22;83.89
59043;BME280;44826;51.596;5.624;2022-12-18T07:09:49;102629.41;;;-7.24;84.25
59043;BME280;44826;51.596;5.624;2022-12-18T07:12:15;102627.00;;;-7.22;83.92
59043;BME280;44826;51.596;5.624;2022-12-18T07:14:40;102631.41;;;-7.20;84.39
59043;BME280;44826;51.596;5.624;2022-12-18T07:17:05;102623.59;;;-7.23;84.06
59043;BME280;44826;51.596;5.624;2022-12-18T07:19:31;102618.53;;;-7.23;83.39
59043;BME280;44826;51.596;5.624;2022-12-18T07:21:56;102613.56;;;-7.21;84.16
59043;BME280;44826;51.596;5.624;2022-12-18T07:24:21;102610.41;;;-7.19;83.64
59043;BME280;44826;51.596;5.624;2022-12-18T07:26:47;102607.13;;;-7.18;84.25
59043;BME280;44826;51.596;5.624;2022-12-18T07:29:12;102605.56;;;-7.16;83.72
59043;BME280;44826;51.596;5.624;2022-12-18T07:31:38;102605.69;;;-7.14;83.96
59043;BME280;44826;51.596;5.624;2022-12-18T07:34:03;102605.03;;;-7.11;83.90
59043;BME280;44826;51.596;5.624;2022-12-18T07:36:29;102596.69;;;-7.10;83.85
59043;BME280;44826;51.596;5.624;2022-12-18T07:38:54;102597.78;;;-7.07;84.61
59043;BME280;44826;51.596;5.624;2022-12-18T07:41:20;102592.97;;;-7.04;84.67
59043;BME280;44826;51.596;5.624;2022-12-18T07:43:46;102590.34;;;-7.05;84.17
59043;BME280;44826;51.596;5.624;2022-12-18T07:46:12;102589.66;;;-7.03;84.14
59043;BME280;44826;51.596;5.624;2022-12-18T07:48:40;102586.47;;;-7.00;84.53
59043;BME280;44826;51.596;5.624;2022-12-18T07:51:06;102568.75;;;-7.00;84.15
59043;BME280;44826;51.596;5.624;2022-12-18T07:53:33;102570.66;;;-6.97;84.91
59043;BME280;44826;51.596;5.624;2022-12-18T07:56:11;102559.88;;;-6.95;83.96
59043;BME280;44826;51.596;5.624;2022-12-18T07:58:37;102553.28;;;-6.93;84.38
59043;BME280;44826;51.596;5.624;2022-12-18T08:01:07;102545.16;;;-6.89;84.17
59043;BME280;44826;51.596;5.624;2022-12-18T08:03:33;102544.63;;;-6.84;84.46
59043;BME280;44826;51.596;5.624;2022-12-18T08:06:03;102542.28;;;-6.81;84.35
59043;BME280;44826;51.596;5.624;2022-12-18T08:08:29;102543.28;;;-6.79;84.03
59043;BME280;44826;51.596;5.624;2022-12-18T08:10:56;102544.41;;;-6.76;84.71
59043;BME280;44826;51.596;5.624;2022-12-18T08:13:21;102547.28;;;-6.71;84.46
59043;BME280;44826;51.596;5.624;2022-12-18T08:16:01;102552.75;;;-6.65;84.59
59043;BME280;44826;51.596;5.624;2022-12-18T08:18:27;102545.50;;;-6.60;84.81
59043;BME280;44826;51.596;5.624;2022-12-18T08:20:53;102563.44;;;-6.57;85.28
59043;BME280;44826;51.596;5.624;2022-12-18T08:23:19;102557.81;;;-6.53;84.71
59043;BME280;44826;51.596;5.624;2022-12-18T08:25:44;102558.16;;;-6.48;85.37
59043;BME280;44826;51.596;5.624;2022-12-18T08:28:10;102570.28;;;-6.44;84.59
59043;BME280;44826;51.596;5.624;2022-12-18T08:30:35;102567.28;;;-6.38;84.85
59043;BME280;44826;51.596;5.624;2022-12-18T08:33:01;102564.22;;;-6.34;84.78
59043;BME280;44826;51.596;5.624;2022-12-18T08:35:26;102567.06;;;-6.30;84.89
59043;BME280;44826;51.596;5.624;2022-12-18T08:37:52;102563.13;;;-6.26;85.35
59043;BME280;44826;51.596;5.624;2022-12-18T08:40:18;102564.31;;;-6.21;84.76
59043;BME280;44826;51.596;5.624;2022-12-18T08:42:43;102556.06;;;-6.18;85.27
59043;BME280;44826;51.596;5.624;2022-12-18T08:45:27;102569.03;;;-6.14;84.87
59043;BME280;44826;51.596;5.624;2022-12-18T08:47:52;102565.97;;;-6.10;84.95
59043;BME280;44826;51.596;5.624;2022-12-18T08:50:17;102555.16;;;-6.07;84.88
59043;BME280;44826;51.596;5.624;2022-12-18T08:52:43;102539.41;;;-6.03;85.51
59043;BME280;44826;51.596;5.624;2022-12-18T08:55:09;102531.31;;;-5.97;85.24
59043;BME280;44826;51.596;5.624;2022-12-18T08:57:34;102525.56;;;-5.95;84.87
59043;BME280;44826;51.596;5.624;2022-12-18T09:00:00;102530.97;;;-5.90;85.50
59043;BME280;44826;51.596;5.624;2022-12-18T09:02:25;102525.44;;;-5.84;84.99
59043;BME280;44826;51.596;5.624;2022-12-18T09:04:50;102526.59;;;-5.79;85.51
59043;BME280;44826;51.596;5.624;2022-12-18T09:07:15;102525.28;;;-5.74;85.45
59043;BME280;44826;51.596;5.624;2022-12-18T09:09:41;102525.72;;;-5.68;85.33
59043;BME280;44826;51.596;5.624;2022-12-18T09:12:06;102534.50;;;-5.63;85.07
59043;BME280;44826;51.596;5.624;2022-12-18T09:14:31;102544.19;;;-5.57;85.13
59043;BME280;44826;51.596;5.624;2022-12-18T09:16:56;102530.91;;;-5.53;85.06
59043;BME280;44826;51.596;5.624;2022-12-18T09:19:22;102531.34;;;-5.46;84.93
59043;BME280;44826;51.596;5.624;2022-12-18T09:21:47;102529.09;;;-5.42;84.83
59043;BME280;44826;51.596;5.624;2022-12-18T09:24:13;102535.47;;;-5.35;84.77
59043;BME280;44826;51.596;5.624;2022-12-18T09:26:39;102544.38;;;-5.28;85.04
59043;BME280;44826;51.596;5.624;2022-12-18T09:29:05;102542.16;;;-5.24;84.83
59043;BME280;44826;51.596;5.624;2022-12-18T09:31:32;102549.28;;;-5.18;85.00
59043;BME280;44826;51.596;5.624;2022-12-18T09:33:57;102553.03;;;-5.13;85.03
59043;BME280;44826;51.596;5.624;2022-12-18T09:36:22;102552.44;;;-5.09;84.86
59043;BME280;44826;51.596;5.624;2022-12-18T09:38:47;102555.38;;;-5.03;84.92
59043;BME280;44826;51.596;5.624;2022-12-18T09:44:15;102532.47;;;-4.91;84.79
59043;BME280;44826;51.596;5.624;2022-12-18T09:46:49;102525.91;;;-4.87;84.90
59043;BME280;44826;51.596;5.624;2022-12-18T09:49:18;102525.44;;;-4.81;84.47
59043;BME280;44826;51.596;5.624;2022-12-18T09:51:50;102512.16;;;-4.77;84.68
59043;BME280;44826;51.596;5.624;2022-12-18T09:54:30;102509.91;;;-4.73;84.36
59043;BME280;44826;51.596;5.624;2022-12-18T09:56:58;102494.88;;;-4.69;84.52
59043;BME280;44826;51.596;5.624;2022-12-18T09:59:26;102497.03;;;-4.62;84.66
59043;BME280;44826;51.596;5.624;2022-12-18T10:01:54;102493.09;;;-4.57;84.52
59043;BME280;44826;51.596;5.624;2022-12-18T10:04:20;102496.75;;;-4.53;84.32
59043;BME280;44826;51.596;5.624;2022-12-18T10:06:56;102486.94;;;-4.47;84.28
59043;BME280;44826;51.596;5.624;2022-12-18T10:12:34;102490.44;;;-4.32;84.91
59043;BME280;44826;51.596;5.624;2022-12-18T10:15:24;102495.13;;;-4.24;84.31
59043;BME280;44826;51.596;5.624;2022-12-18T10:20:55;102501.66;;;-4.15;84.53
59043;BME280;44826;51.596;5.624;2022-12-18T10:26:10;102498.22;;;-4.02;83.91
59043;BME280;44826;51.596;5.624;2022-12-18T10:28:39;102489.09;;;-3.98;83.72
59043;BME280;44826;51.596;5.624;2022-12-18T10:31:16;102489.44;;;-3.92;84.03
59043;BME280;44826;51.596;5.624;2022-12-18T10:33:42;102494.91;;;-3.86;83.89
59043;BME280;44826;51.596;5.624;2022-12-18T10:36:08;102481.69;;;-3.80;83.83
59043;BME280;44826;51.596;5.624;2022-12-18T10:38:33;102476.00;;;-3.76;83.77
59043;BME280;44826;51.596;5.624;2022-12-18T10:43:33;102462.25;;;-3.64;83.74
59043;BME280;44826;51.596;5.624;2022-12-18T10:48:28;102454.47;;;-3.53;83.36
59043;BME280;44826;51.596;5.624;2022-12-18T10:50:55;102449.56;;;-3.49;82.87
59043;BME280;44826;51.596;5.624;2022-12-18T10:53:23;102446.41;;;-3.45;83.03
59043;BME280;44826;51.596;5.624;2022-12-18T10:55:52;102441.66;;;-3.39;83.11
59043;BME280;44826;51.596;5.624;2022-12-18T10:58:29;102431.84;;;-3.33;82.89
59043;BME280;44826;51.596;5.624;2022-12-18T11:01:08;102422.72;;;-3.29;82.56
59043;BME280;44826;51.596;5.624;2022-12-18T11:03:43;102419.72;;;-3.22;82.92
59043;BME280;44826;51.596;5.624;2022-12-18T11:06:18;102410.50;;;-3.20;82.84
59043;BME280;44826;51.596;5.624;2022-12-18T11:08:57;102411.47;;;-3.18;82.47
59043;BME280;44826;51.596;5.624;2022-12-18T11:11:23;102420.94;;;-3.15;81.82
59043;BME280;44826;51.596;5.624;2022-12-18T11:16:20;102411.13;;;-3.09;82.31
59043;BME280;44826;51.596;5.624;2022-12-18T11:18:46;102419.09;;;-3.03;82.25
59043;BME280;44826;51.596;5.624;2022-12-18T11:21:12;102415.84;;;-3.00;82.01
59043;BME280;44826;51.596;5.624;2022-12-18T11:23:47;102420.22;;;-2.98;82.17
59043;BME280;44826;51.596;5.624;2022-12-18T11:26:13;102405.97;;;-2.94;81.97
59043;BME280;44826;51.596;5.624;2022-12-18T11:28:52;102399.41;;;-2.91;81.56
59043;BME280;44826;51.596;5.624;2022-12-18T11:31:28;102397.97;;;-2.85;82.04
59043;BME280;44826;51.596;5.624;2022-12-18T11:34:14;102397.34;;;-2.81;81.25
59043;BME280;44826;51.596;5.624;2022-12-18T11:36:44;102395.78;;;-2.79;81.51
59043;BME280;44826;51.596;5.624;2022-12-18T11:39:19;102392.59;;;-2.75;81.76
59043;BME280;44826;51.596;5.624;2022-12-18T11:41:50;102389.41;;;-2.71;81.90
59043;BME280;44826;51.596;5.624;2022-12-18T11:44:55;102399.75;;;-2.68;81.11
59043;BME280;44826;51.596;5.624;2022-12-18T11:50:16;102393.31;;;-2.61;80.72
59043;BME280;44826;51.596;5.624;2022-12-18T11:52:42;102386.75;;;-2.57;81.47
59043;BME280;44826;51.596;5.624;2022-12-18T11:55:41;102375.91;;;-2.53;81.26
59043;BME280;44826;51.596;5.624;2022-12-18T11:58:25;102377.66;;;-2.52;80.75
59043;BME280;44826;51.596;5.624;2022-12-18T12:01:11;102376.00;;;-2.52;80.01
59043;BME280;44826;51.596;5.624;2022-12-18T12:06:21;102367.78;;;-2.46;80.51
59043;BME280;44826;51.596;5.624;2022-12-18T12:09:04;102359.41;;;-2.44;80.27
59043;BME280;44826;51.596;5.624;2022-12-18T12:11:58;102358.78;;;-2.39;80.49
59043;BME280;44826;51.596;5.624;2022-12-18T12:18:18;102342.78;;;-2.37;80.72
59043;BME280;44826;51.596;5.624;2022-12-18T12:23:52;102349.88;;;-2.31;80.01
59043;BME280;44826;51.596;5.624;2022-12-18T12:26:42;102350.03;;;-2.28;80.52
59043;BME280;44826;51.596;5.624;2022-12-18T12:29:36;102345.88;;;-2.26;80.39
59043;BME280;44826;51.596;5.624;2022-12-18T12:32:25;102336.72;;;-2.22;79.79
59043;BME280;44826;51.596;5.624;2022-12-18T12:41:14;102319.97;;;-2.17;80.80
59043;BME280;44826;51.596;5.624;2022-12-18T12:44:03;102310.56;;;-2.18;79.41
59043;BME280;44826;51.596;5.624;2022-12-18T12:46:32;102308.91;;;-2.18;79.87
59043;BME280;44826;51.596;5.624;2022-12-18T12:49:02;102306.38;;;-2.18;79.40
59043;BME280;44826;51.596;5.624;2022-12-18T12:51:32;102307.22;;;-2.17;79.59
59043;BME280;44826;51.596;5.624;2022-12-18T12:54:00;102295.44;;;-2.15;79.79
59043;BME280;44826;51.596;5.624;2022-12-18T12:56:47;102287.00;;;-2.14;79.72
59043;BME280;44826;51.596;5.624;2022-12-18T12:59:47;102291.34;;;-2.11;79.70
59043;BME280;44826;51.596;5.624;2022-12-18T13:02:20;102280.28;;;-2.12;79.12
59043;BME280;44826;51.596;5.624;2022-12-18T13:05:02;102279.41;;;-2.13;78.79
59043;BME280;44826;51.596;5.624;2022-12-18T13:07:36;102276.94;;;-2.11;79.18
59043;BME280;44826;51.596;5.624;2022-12-18T13:10:25;102268.50;;;-2.10;79.51
59043;BME280;44826;51.596;5.624;2022-12-18T13:12:55;102263.31;;;-2.11;79.02
59043;BME280;44826;51.596;5.624;2022-12-18T13:17:48;102257.41;;;-2.10;78.55
59043;BME280;44826;51.596;5.624;2022-12-18T13:20:14;102258.31;;;-2.10;78.58
59043;BME280;44826;51.596;5.624;2022-12-18T13:25:30;102250.81;;;-2.07;78.87
59043;BME280;44826;51.596;5.624;2022-12-18T13:28:06;102252.47;;;-2.07;77.88
59043;BME280;44826;51.596;5.624;2022-12-18T13:38:33;102256.84;;;-2.05;78.30
59043;BME280;44826;51.596;5.624;2022-12-18T13:43:43;102239.81;;;-2.06;77.85
59043;BME280;44826;51.596;5.624;2022-12-18T13:49:17;102248.38;;;-2.04;78.30
59043;BME280;44826;51.596;5.624;2022-12-18T13:51:49;102234.72;;;-2.06;77.67
59043;BME280;44826;51.596;5.624;2022-12-18T13:54:20;102232.97;;;-2.07;77.67
59043;BME280;44826;51.596;5.624;2022-12-18T13:56:47;102229.63;;;-2.06;78.56
59043;BME280;44826;51.596;5.624;2022-12-18T14:02:00;102221.13;;;-2.05;78.33
59043;BME280;44826;51.596;5.624;2022-12-18T14:04:34;102221.28;;;-2.02;77.86
59043;BME280;44826;51.596;5.624;2022-12-18T14:07:10;102226.38;;;-2.02;78.50
59043;BME280;44826;51.596;5.624;2022-12-18T14:09:42;102218.69;;;-2.03;78.44
59043;BME280;44826;51.596;5.624;2022-12-18T14:12:16;102216.19;;;-2.02;77.68